Time;durP1;ratioP1;P1;durP2;ratioP2;P2;SDS_P1;SDS_P2;PMS_P1;PMS_P2;Temp;Humidity;BMP_temperature;BMP_pressure;BME280_temperature;BME280_humidity;BME280_pressure;Samples;Min_cycle;Max_cycle;Signal;HPM_P1;HPM_P2
2023/11/22 00:00:51;;;;;;;27.13;17.80;;;5.50;99.90;;;;;;5012352;28;20192;-68
2023/11/22 00:03:16;;;;;;;24.97;17.00;;;5.50;99.90;;;;;;5012360;28;20250;-69
2023/11/22 00:05:42;;;;;;;27.47;17.80;;;5.50;99.90;;;;;;5012799;28;20531;-68
2023/11/22 00:08:08;;;;;;;23.27;16.83;;;5.60;99.90;;;;;;5012228;28;20296;-69
2023/11/22 00:10:34;;;;;;;22.33;16.43;;;5.60;99.90;;;;;;5012191;28;20159;-69
2023/11/22 00:13:00;;;;;;;29.80;17.77;;;5.60;99.90;;;;;;5012391;28;20200;-68
2023/11/22 00:15:26;;;;;;;25.73;18.17;;;5.60;99.90;;;;;;5012203;28;20668;-68
2023/11/22 00:17:52;;;;;;;22.50;17.13;;;5.70;99.90;;;;;;5012325;28;20223;-69
2023/11/22 00:20:18;;;;;;;26.83;17.00;;;5.70;99.90;;;;;;5012051;28;20165;-68
2023/11/22 00:22:45;;;;;;;26.20;17.37;;;5.80;99.90;;;;;;5011345;28;20251;-69
2023/11/22 00:25:13;;;;;;;25.20;16.70;;;5.80;99.90;;;;;;5012078;28;20509;-68
2023/11/22 00:27:39;;;;;;;26.67;18.40;;;5.90;99.90;;;;;;5011943;28;20271;-68
2023/11/22 00:30:05;;;;;;;25.43;17.40;;;5.90;99.90;;;;;;5012002;28;20438;-69
2023/11/22 00:32:30;;;;;;;20.77;16.37;;;5.90;99.90;;;;;;5011989;28;20312;-69
2023/11/22 00:34:56;;;;;;;26.83;17.37;;;5.90;99.90;;;;;;5012173;28;20641;-69
2023/11/22 00:37:22;;;;;;;24.60;17.50;;;5.90;99.90;;;;;;4994089;28;20704;-69
2023/11/22 00:39:47;;;;;;;25.23;16.90;;;5.90;99.90;;;;;;5012237;28;20210;-69
2023/11/22 00:42:13;;;;;;;29.27;18.43;;;6.00;99.90;;;;;;5011920;28;20195;-70
2023/11/22 00:44:38;;;;;;;24.63;16.80;;;6.00;99.90;;;;;;5011887;28;20180;-69
2023/11/22 00:47:04;;;;;;;23.20;16.70;;;6.00;99.90;;;;;;5012123;28;20188;-69
2023/11/22 00:49:30;;;;;;;22.27;16.33;;;6.00;99.90;;;;;;5011202;28;20880;-70
2023/11/22 00:51:56;;;;;;;25.67;17.50;;;6.00;99.90;;;;;;5011797;28;20254;-70
2023/11/22 00:54:22;;;;;;;27.63;17.97;;;6.00;99.90;;;;;;5011573;28;20657;-70
2023/11/22 00:56:47;;;;;;;29.83;18.37;;;6.00;99.90;;;;;;5011714;28;20255;-70
2023/11/22 00:59:16;;;;;;;28.63;18.63;;;6.00;99.90;;;;;;5011290;28;20211;-69
2023/11/22 01:01:42;;;;;;;26.07;18.07;;;6.00;99.90;;;;;;5011534;28;20180;-69
2023/11/22 01:04:07;;;;;;;22.63;16.87;;;6.00;99.90;;;;;;5011648;28;20227;-69
2023/11/22 01:06:34;;;;;;;28.93;17.87;;;6.10;99.90;;;;;;5011458;28;20187;-69
2023/11/22 01:09:00;;;;;;;28.57;18.70;;;6.10;99.90;;;;;;5011225;28;20278;-69
2023/11/22 01:11:26;;;;;;;28.43;18.30;;;6.00;99.90;;;;;;5011328;28;20260;-70
2023/11/22 01:13:51;;;;;;;27.07;17.57;;;6.00;99.90;;;;;;5011385;28;20250;-69
2023/11/22 01:16:17;;;;;;;25.27;17.93;;;6.00;99.90;;;;;;5011561;28;20168;-69
2023/11/22 01:18:43;;;;;;;23.67;18.03;;;6.00;99.90;;;;;;5011004;28;20198;-69
2023/11/22 01:21:08;;;;;;;25.67;17.53;;;6.00;99.90;;;;;;5012158;28;20199;-69
2023/11/22 01:23:34;;;;;;;23.93;16.60;;;6.00;99.90;;;;;;5011060;28;20648;-69
2023/11/22 01:26:00;;;;;;;24.30;17.30;;;6.00;99.90;;;;;;4993645;28;20180;-69
2023/11/22 01:28:27;;;;;;;29.00;17.43;;;6.00;99.90;;;;;;5010332;28;20191;-69
2023/11/22 01:30:54;;;;;;;30.43;17.97;;;5.90;99.90;;;;;;5011014;28;20180;-69
2023/11/22 01:33:23;;;;;;;29.20;17.63;;;5.90;99.90;;;;;;5011052;28;20196;-69
2023/11/22 01:35:49;;;;;;;24.60;16.33;;;5.90;99.90;;;;;;5011147;28;20773;-68
2023/11/22 01:38:15;;;;;;;26.37;16.60;;;5.90;99.90;;;;;;5010992;28;20188;-69
2023/11/22 01:40:47;;;;;;;24.93;17.23;;;5.90;99.90;;;;;;4993268;28;20248;-69
2023/11/22 01:43:26;;;;;;;24.37;17.30;;;5.80;99.90;;;;;;5010744;28;20649;-70
2023/11/22 01:45:53;;;;;;;24.63;17.10;;;5.80;99.90;;;;;;4991730;28;20168;-70
2023/11/22 01:48:19;;;;;;;23.00;16.10;;;5.70;99.90;;;;;;4990992;28;20200;-69
2023/11/22 01:50:45;;;;;;;28.30;17.93;;;5.70;99.90;;;;;;4991612;28;20177;-70
2023/11/22 01:53:13;;;;;;;24.53;16.43;;;5.60;99.90;;;;;;4991520;28;20278;-69
2023/11/22 01:55:40;;;;;;;25.83;16.73;;;5.60;99.90;;;;;;4991372;28;20256;-69
2023/11/22 01:58:06;;;;;;;22.13;15.47;;;5.60;99.90;;;;;;4993443;28;20196;-69
2023/11/22 02:00:37;;;;;;;21.40;15.23;;;5.50;99.90;;;;;;5010643;28;20251;-69
2023/11/22 02:03:03;;;;;;;27.37;16.90;;;5.50;99.90;;;;;;5011489;28;20183;-70
2023/11/22 02:05:28;;;;;;;20.23;15.63;;;5.50;99.90;;;;;;5010914;28;20176;-69
2023/11/22 02:07:55;;;;;;;23.47;16.17;;;5.50;99.90;;;;;;5010895;28;20204;-69
2023/11/22 02:10:20;;;;;;;23.67;15.37;;;5.50;99.90;;;;;;5010649;28;20515;-69
2023/11/22 02:12:46;;;;;;;24.73;16.37;;;5.50;99.90;;;;;;5010414;28;20184;-69
2023/11/22 02:15:12;;;;;;;19.60;14.97;;;5.60;99.90;;;;;;5010947;28;20176;-69
2023/11/22 02:17:37;;;;;;;19.03;14.43;;;5.50;99.90;;;;;;5010383;28;20226;-69
2023/11/22 02:20:08;;;;;;;23.17;15.37;;;5.50;99.90;;;;;;5010750;28;20546;-69
2023/11/22 02:22:34;;;;;;;18.73;14.57;;;5.40;99.90;;;;;;5011055;28;20649;-70
2023/11/22 02:24:59;;;;;;;22.50;15.20;;;5.40;99.90;;;;;;5010839;28;20278;-69
2023/11/22 02:27:25;;;;;;;21.50;15.53;;;5.40;99.90;;;;;;5010554;28;20202;-70
2023/11/22 02:29:51;;;;;;;19.77;14.47;;;5.40;99.90;;;;;;5010615;28;20179;-70
2023/11/22 02:32:16;;;;;;;20.87;14.97;;;5.30;99.90;;;;;;5010794;28;20661;-70
2023/11/22 02:34:42;;;;;;;20.00;15.23;;;5.30;99.90;;;;;;5010450;28;20196;-69
2023/11/22 02:37:08;;;;;;;21.57;15.03;;;5.20;99.90;;;;;;5010683;28;20195;-70
2023/11/22 02:39:55;;;;;;;25.37;15.93;;;5.20;99.90;;;;;;5009804;28;20199;-70
2023/11/22 02:42:21;;;;;;;21.50;14.53;;;5.20;99.90;;;;;;5011221;28;20168;-70
2023/11/22 02:44:47;;;;;;;24.03;15.50;;;5.10;99.90;;;;;;5010658;28;20178;-70
2023/11/22 02:47:12;;;;;;;20.47;14.87;;;5.10;99.90;;;;;;5012974;28;20199;-69
2023/11/22 02:49:39;;;;;;;21.33;14.80;;;5.10;99.90;;;;;;5013592;28;20188;-69
2023/11/22 02:52:05;;;;;;;23.63;15.70;;;5.10;99.90;;;;;;5014148;28;20200;-70
2023/11/22 02:54:31;;;;;;;23.37;15.47;;;5.10;99.90;;;;;;5014002;28;20196;-69
2023/11/22 02:56:57;;;;;;;22.30;15.60;;;5.00;99.90;;;;;;5014409;28;20188;-69
2023/11/22 02:59:22;;;;;;;23.67;15.87;;;5.10;99.90;;;;;;5013209;28;20192;-69
2023/11/22 03:01:48;;;;;;;20.07;14.60;;;5.00;99.90;;;;;;5014181;28;20170;-69
2023/11/22 03:04:13;;;;;;;21.03;15.03;;;4.90;99.90;;;;;;5014105;28;20637;-70
2023/11/22 03:06:40;;;;;;;23.47;16.33;;;4.80;99.90;;;;;;5014144;28;20168;-69
2023/11/22 03:09:05;;;;;;;20.90;15.23;;;4.70;99.90;;;;;;5013700;28;20661;-69
2023/11/22 03:11:31;;;;;;;24.07;15.83;;;4.70;99.90;;;;;;5014181;28;20203;-69
2023/11/22 03:13:57;;;;;;;24.20;15.87;;;4.60;99.90;;;;;;5014181;28;20196;-69
2023/11/22 03:16:24;;;;;;;24.63;17.57;;;4.50;99.90;;;;;;5013769;28;20183;-69
2023/11/22 03:18:50;;;;;;;27.40;14.53;;;4.40;99.90;;;;;;5013547;28;20192;-69
2023/11/22 03:21:17;;;;;;;24.93;16.17;;;4.30;99.90;;;;;;5013593;28;20172;-69
2023/11/22 03:23:42;;;;;;;25.60;16.20;;;4.30;99.90;;;;;;5013320;28;20190;-70
2023/11/22 03:26:09;;;;;;;23.07;17.10;;;4.20;99.90;;;;;;5013924;28;20539;-69
2023/11/22 03:28:35;;;;;;;22.60;16.30;;;4.20;99.90;;;;;;5013259;28;20203;-69
2023/11/22 03:31:02;;;;;;;23.27;17.00;;;4.10;99.90;;;;;;5013480;28;20255;-69
2023/11/22 03:33:28;;;;;;;24.57;16.73;;;4.10;99.90;;;;;;5013269;28;20200;-69
2023/11/22 03:35:53;;;;;;;22.97;16.83;;;4.10;99.90;;;;;;4995933;28;20535;-69
2023/11/22 03:38:20;;;;;;;23.70;15.67;;;4.00;99.90;;;;;;5013135;28;20246;-69
2023/11/22 03:40:47;;;;;;;25.17;15.57;;;4.00;99.90;;;;;;5013132;28;20580;-69
2023/11/22 03:43:13;;;;;;;26.30;18.63;;;3.90;99.90;;;;;;5013305;28;20180;-69
2023/11/22 03:45:38;;;;;;;38.73;25.67;;;3.90;99.90;;;;;;5013037;28;20219;-69
2023/11/22 03:48:04;;;;;;;32.77;20.10;;;3.80;99.90;;;;;;5013149;28;20194;-69
2023/11/22 03:50:30;;;;;;;24.70;18.07;;;3.80;99.90;;;;;;5012764;28;20625;-69
2023/11/22 03:52:55;;;;;;;27.37;18.37;;;3.70;99.90;;;;;;5013037;28;20295;-69
2023/11/22 03:55:21;;;;;;;34.57;21.83;;;3.70;99.90;;;;;;5012986;28;20223;-69
2023/11/22 03:57:46;;;;;;;27.47;18.33;;;3.60;99.90;;;;;;5012100;28;20192;-70
2023/11/22 04:00:13;;;;;;;29.10;18.60;;;3.60;99.90;;;;;;5013081;28;20183;-70
2023/11/22 04:02:39;;;;;;;29.83;19.13;;;3.60;99.90;;;;;;5013189;28;20783;-69
2023/11/22 04:05:07;;;;;;;29.20;19.73;;;3.60;99.90;;;;;;5013306;28;20168;-69
2023/11/22 04:07:33;;;;;;;26.13;17.73;;;3.50;99.90;;;;;;5012458;28;20203;-68
2023/11/22 04:09:59;;;;;;;26.33;18.53;;;3.50;99.90;;;;;;5012801;28;20502;-69
2023/11/22 04:12:24;;;;;;;30.40;18.67;;;3.50;99.90;;;;;;5012668;28;20179;-69
2023/11/22 04:14:51;;;;;;;27.97;18.27;;;3.40;99.90;;;;;;5012739;28;20290;-69
2023/11/22 04:17:18;;;;;;;29.80;19.27;;;3.40;99.90;;;;;;5012609;28;20567;-69
2023/11/22 04:19:43;;;;;;;30.40;18.97;;;3.40;99.90;;;;;;5011606;28;20172;-69
2023/11/22 04:22:10;;;;;;;34.50;19.67;;;3.40;99.90;;;;;;5012632;28;20192;-69
2023/11/22 04:24:36;;;;;;;29.03;17.83;;;3.30;99.90;;;;;;5012311;28;20234;-69
2023/11/22 04:27:02;;;;;;;30.13;19.23;;;3.30;99.90;;;;;;5012434;28;20196;-69
2023/11/22 04:29:28;;;;;;;33.27;19.83;;;3.30;99.90;;;;;;5012105;28;20581;-69
2023/11/22 04:31:53;;;;;;;31.67;19.33;;;3.30;99.90;;;;;;5012206;28;20184;-69
2023/11/22 04:34:20;;;;;;;32.50;18.20;;;3.20;99.90;;;;;;5012531;28;20207;-69
2023/11/22 04:36:46;;;;;;;33.33;20.23;;;3.20;99.90;;;;;;5012229;28;20173;-69
2023/11/22 04:39:13;;;;;;;32.03;19.40;;;3.20;99.90;;;;;;5012827;28;20169;-69
2023/11/22 04:41:38;;;;;;;31.57;19.43;;;3.20;99.90;;;;;;5012053;28;20462;-69
2023/11/22 04:44:04;;;;;;;34.90;20.37;;;3.20;99.90;;;;;;5012229;28;20238;-69
2023/11/22 04:46:30;;;;;;;34.17;19.23;;;3.20;99.90;;;;;;5012373;28;20172;-69
2023/11/22 04:48:57;;;;;;;33.73;19.87;;;3.20;99.90;;;;;;5012175;28;20207;-69
2023/11/22 04:51:24;;;;;;;27.37;18.30;;;3.20;99.90;;;;;;5012113;28;20191;-69
2023/11/22 04:53:50;;;;;;;34.60;18.63;;;3.20;99.90;;;;;;5011793;28;20699;-69
2023/11/22 04:56:16;;;;;;;35.80;20.00;;;3.20;99.90;;;;;;5012116;28;20172;-69
2023/11/22 04:58:42;;;;;;;29.93;18.17;;;3.00;99.90;;;;;;5011394;28;20184;-68
2023/11/22 05:01:10;;;;;;;32.10;18.37;;;3.00;99.90;;;;;;5012017;28;20410;-69
2023/11/22 05:03:37;;;;;;;28.13;17.73;;;3.00;99.90;;;;;;5011693;28;20175;-69
2023/11/22 05:06:03;;;;;;;30.43;17.63;;;2.90;99.90;;;;;;5011949;28;20176;-69
2023/11/22 05:08:30;;;;;;;36.90;18.10;;;2.90;99.90;;;;;;5011415;28;20199;-68
2023/11/22 05:10:55;;;;;;;29.20;18.30;;;2.80;99.90;;;;;;5011692;28;20168;-69
2023/11/22 05:13:21;;;;;;;30.77;17.80;;;2.70;99.90;;;;;;5011338;28;20226;-69
2023/11/22 05:15:47;;;;;;;28.07;18.93;;;2.70;99.90;;;;;;5011596;28;20184;-69
2023/11/22 05:18:12;;;;;;;30.23;18.40;;;2.70;99.90;;;;;;5011412;28;20192;-69
2023/11/22 05:20:38;;;;;;;28.27;17.67;;;2.70;99.90;;;;;;4993638;28;20178;-69
2023/11/22 05:23:04;;;;;;;32.67;18.47;;;2.60;99.90;;;;;;5011545;28;20180;-68
2023/11/22 05:25:30;;;;;;;30.43;18.10;;;2.60;99.90;;;;;;5010090;28;20250;-69
2023/11/22 05:27:55;;;;;;;33.23;19.63;;;2.60;99.90;;;;;;5010283;28;20196;-69
2023/11/22 05:30:21;;;;;;;35.37;20.53;;;2.60;99.90;;;;;;5010116;28;20200;-69
2023/11/22 05:32:48;;;;;;;29.47;20.03;;;2.60;99.90;;;;;;5010500;28;20210;-69
2023/11/22 05:35:14;;;;;;;34.30;20.17;;;2.60;99.90;;;;;;5011146;28;20196;-69
2023/11/22 05:37:40;;;;;;;33.67;19.63;;;2.60;99.90;;;;;;5011064;28;20227;-69
2023/11/22 05:40:09;;;;;;;37.63;20.87;;;2.70;99.90;;;;;;5011359;28;20251;-69
2023/11/22 05:42:35;;;;;;;31.63;20.00;;;2.70;99.90;;;;;;5011040;28;20168;-69
2023/11/22 05:45:01;;;;;;;39.40;21.47;;;2.60;99.90;;;;;;5011521;28;20246;-68
2023/11/22 05:47:27;;;;;;;37.17;20.47;;;2.70;99.90;;;;;;5011035;28;20196;-69
2023/11/22 05:49:52;;;;;;;34.43;21.10;;;2.70;99.90;;;;;;5011093;28;20622;-69
2023/11/22 05:52:20;;;;;;;37.50;20.47;;;2.70;99.90;;;;;;5011498;28;20219;-69
2023/11/22 05:54:46;;;;;;;30.30;19.20;;;2.70;99.90;;;;;;5010980;28;20286;-69
2023/11/22 05:57:12;;;;;;;39.63;20.47;;;2.70;99.90;;;;;;5011012;28;20591;-69
2023/11/22 05:59:38;;;;;;;35.20;19.90;;;2.60;99.90;;;;;;5010658;28;20176;-69
2023/11/22 06:02:03;;;;;;;33.77;19.60;;;2.50;99.90;;;;;;5011220;28;20171;-69
2023/11/22 06:04:30;;;;;;;33.60;17.93;;;2.50;99.90;;;;;;5011058;28;20670;-69
2023/11/22 06:06:56;;;;;;;32.57;19.17;;;2.50;99.90;;;;;;5011187;28;20195;-69
2023/11/22 06:09:22;;;;;;;29.23;18.87;;;2.40;99.90;;;;;;5010963;28;20176;-69
2023/11/22 06:11:48;;;;;;;30.60;19.03;;;2.30;99.90;;;;;;5011054;28;20266;-68
2023/11/22 06:14:14;;;;;;;33.03;20.63;;;2.30;99.90;;;;;;5011119;28;20251;-69
2023/11/22 06:16:39;;;;;;;32.87;20.27;;;2.20;99.90;;;;;;5010872;28;20168;-68
2023/11/22 06:19:05;;;;;;;37.33;20.13;;;2.20;99.90;;;;;;5010972;28;20696;-69
2023/11/22 06:21:32;;;;;;;36.63;20.97;;;2.20;99.90;;;;;;5012294;28;20644;-68
2023/11/22 06:23:58;;;;;;;41.67;19.20;;;2.20;99.90;;;;;;5014389;28;20195;-68
2023/11/22 06:26:24;;;;;;;37.83;20.97;;;2.20;99.90;;;;;;5014718;28;20349;-69
2023/11/22 06:28:50;;;;;;;34.23;20.73;;;2.10;99.90;;;;;;5014361;28;20265;-69
2023/11/22 06:31:15;;;;;;;33.67;19.43;;;2.10;99.90;;;;;;5014613;28;20184;-69
2023/11/22 06:33:41;;;;;;;32.83;20.70;;;2.10;99.90;;;;;;5014113;28;20636;-69
2023/11/22 06:36:09;;;;;;;42.37;22.57;;;2.10;99.90;;;;;;5014560;28;20271;-69
2023/11/22 06:38:35;;;;;;;36.57;22.20;;;2.00;99.90;;;;;;5013780;28;20685;-69
2023/11/22 06:41:00;;;;;;;43.00;21.77;;;2.10;99.90;;;;;;5014272;28;20176;-69
2023/11/22 06:43:26;;;;;;;39.33;22.97;;;2.10;99.90;;;;;;5014105;28;20176;-69
2023/11/22 06:45:52;;;;;;;44.93;23.27;;;2.10;99.90;;;;;;5014251;28;20195;-70
2023/11/22 06:48:18;;;;;;;39.97;22.37;;;2.10;99.90;;;;;;5014135;28;20192;-70
2023/11/22 06:50:44;;;;;;;44.33;23.57;;;2.00;99.90;;;;;;5014237;28;20184;-70
2023/11/22 06:53:11;;;;;;;53.50;23.97;;;2.00;99.90;;;;;;5014075;28;20668;-69
2023/11/22 06:55:38;;;;;;;41.13;21.23;;;2.00;99.90;;;;;;5013816;28;20175;-69
2023/11/22 06:58:06;;;;;;;44.20;23.23;;;2.00;99.90;;;;;;5014007;28;20701;-69
2023/11/22 07:00:32;;;;;;;43.77;22.83;;;2.00;99.90;;;;;;5013701;28;20559;-69
2023/11/22 07:02:58;;;;;;;44.73;22.13;;;2.00;99.90;;;;;;5014016;28;20226;-70
2023/11/22 07:05:24;;;;;;;39.67;22.73;;;2.00;99.90;;;;;;5013502;28;20665;-70
2023/11/22 07:07:50;;;;;;;38.80;23.53;;;2.00;99.90;;;;;;5013596;28;20271;-70
2023/11/22 07:10:16;;;;;;;39.67;21.17;;;2.00;99.90;;;;;;5012484;28;20180;-70
2023/11/22 07:12:43;;;;;;;42.07;22.73;;;2.00;99.90;;;;;;5013599;28;20176;-70
2023/11/22 07:15:09;;;;;;;40.87;21.67;;;2.00;99.90;;;;;;5013754;28;20179;-70
2023/11/22 07:17:35;;;;;;;39.07;22.90;;;2.00;99.90;;;;;;5017200;28;20290;-70
2023/11/22 07:20:01;;;;;;;43.47;22.67;;;2.00;99.90;;;;;;5023052;28;20283;-69
2023/11/22 07:22:26;;;;;;;43.03;22.77;;;2.00;99.90;;;;;;5013426;28;20642;-70
2023/11/22 07:24:59;;;;;;;41.00;23.47;;;2.00;99.90;;;;;;5013347;28;20246;-69
2023/11/22 07:27:25;;;;;;;49.37;23.43;;;2.00;99.90;;;;;;5013147;28;20196;-69
2023/11/22 07:29:52;;;;;;;43.33;22.60;;;2.10;99.90;;;;;;5013324;28;20339;-68
2023/11/22 07:32:20;;;;;;;43.63;21.80;;;2.20;99.90;;;;;;5013541;28;20695;-68
2023/11/22 07:34:45;;;;;;;40.77;21.63;;;2.20;99.90;;;;;;5013180;28;20203;-69
2023/11/22 07:37:12;;;;;;;39.40;21.70;;;2.30;99.90;;;;;;5013090;28;20192;-69
2023/11/22 07:39:39;;;;;;;39.33;20.60;;;2.30;99.90;;;;;;5012532;28;20241;-69
2023/11/22 07:42:08;;;;;;;44.70;22.60;;;2.30;99.90;;;;;;5012851;28;20222;-69
2023/11/22 07:44:37;;;;;;;43.90;22.53;;;2.40;99.90;;;;;;5012863;28;20172;-69
2023/11/22 07:47:05;;;;;;;38.97;23.43;;;2.50;99.90;;;;;;5013209;28;20607;-69
2023/11/22 07:49:31;;;;;;;40.43;21.57;;;2.60;99.90;;;;;;5012544;28;20172;-69
2023/11/22 07:51:57;;;;;;;42.13;21.93;;;2.60;99.90;;;;;;5013054;28;20187;-69
2023/11/22 07:54:22;;;;;;;43.17;22.00;;;2.60;99.90;;;;;;5012324;28;20208;-69
2023/11/22 07:56:54;;;;;;;39.20;20.50;;;2.70;99.90;;;;;;5012725;28;20234;-69
2023/11/22 07:59:20;;;;;;;40.40;21.00;;;2.80;99.90;;;;;;5012308;28;20279;-69
2023/11/22 08:01:47;;;;;;;43.10;21.43;;;2.80;99.90;;;;;;5012426;28;20539;-70
2023/11/22 08:04:13;;;;;;;40.43;20.37;;;2.90;99.90;;;;;;5012375;28;20195;-69
2023/11/22 08:06:39;;;;;;;37.83;21.03;;;3.00;99.90;;;;;;5012447;28;20176;-70
2023/11/22 08:09:05;;;;;;;42.90;20.50;;;3.10;99.90;;;;;;5012383;28;20184;-69
2023/11/22 08:11:31;;;;;;;40.93;21.67;;;3.20;99.90;;;;;;5012505;28;20192;-69
2023/11/22 08:13:58;;;;;;;48.57;24.07;;;3.20;99.90;;;;;;5013068;28;20673;-69
2023/11/22 08:16:27;;;;;;;103.83;28.13;;;3.50;99.90;;;;;;5012293;28;20234;-69
2023/11/22 08:18:53;;;;;;;40.53;22.17;;;4.00;99.90;;;;;;5011770;28;20196;-69
2023/11/22 08:21:19;;;;;;;37.03;21.83;;;4.60;99.90;;;;;;5012211;28;20591;-69
2023/11/22 08:23:46;;;;;;;34.43;20.77;;;5.00;99.90;;;;;;5012005;28;20672;-70
2023/11/22 08:26:12;;;;;;;32.00;19.83;;;5.40;99.90;;;;;;5012105;28;20176;-70
2023/11/22 08:28:39;;;;;;;29.43;20.30;;;5.90;99.90;;;;;;5011555;28;20200;-70
2023/11/22 08:31:06;;;;;;;32.20;21.57;;;6.50;99.90;;;;;;5012277;28;20263;-70
2023/11/22 08:33:33;;;;;;;24.17;18.00;;;7.30;99.90;;;;;;5011877;28;20203;-70
2023/11/22 08:35:59;;;;;;;19.37;16.50;;;7.80;99.90;;;;;;5012264;28;20211;-70
2023/11/22 08:38:28;;;;;;;19.40;15.93;;;7.90;99.90;;;;;;5011787;28;20187;-70
2023/11/22 08:40:55;;;;;;;18.27;14.03;;;8.10;99.90;;;;;;5012931;28;20168;-70
2023/11/22 08:43:23;;;;;;;17.00;13.73;;;8.30;99.90;;;;;;5031201;28;20241;-69
2023/11/22 08:45:49;;;;;;;15.20;12.10;;;8.40;99.90;;;;;;5031596;28;20175;-69
2023/11/22 08:48:15;;;;;;;15.43;12.53;;;8.40;99.90;;;;;;5019017;28;20673;-70
2023/11/22 08:50:41;;;;;;;13.57;12.17;;;8.70;99.90;;;;;;5011586;28;20685;-70
2023/11/22 08:53:08;;;;;;;17.23;12.57;;;8.70;99.90;;;;;;5012157;28;20282;-70
2023/11/22 08:55:33;;;;;;;13.97;11.10;;;8.80;99.90;;;;;;4994562;28;20211;-70
2023/11/22 08:57:59;;;;;;;12.23;10.97;;;8.90;99.90;;;;;;5012439;28;20602;-69
2023/11/22 09:00:28;;;;;;;13.13;10.90;;;9.00;99.90;;;;;;5011929;28;20172;-69
2023/11/22 09:02:54;;;;;;;14.30;11.17;;;9.30;99.90;;;;;;5012236;28;20577;-70
2023/11/22 09:05:21;;;;;;;10.70;9.63;;;9.70;99.90;;;;;;5012061;28;20206;-70
2023/11/22 09:07:47;;;;;;;11.70;10.10;;;10.10;99.90;;;;;;4992303;28;20688;-70
2023/11/22 09:10:14;;;;;;;10.93;9.83;;;10.10;99.90;;;;;;5011107;28;20177;-70
2023/11/22 09:12:41;;;;;;;12.30;10.13;;;10.20;99.90;;;;;;5011569;28;20219;-69
2023/11/22 09:15:09;;;;;;;9.70;8.70;;;10.30;99.90;;;;;;5011194;28;20233;-70
2023/11/22 09:17:38;;;;;;;9.20;8.20;;;10.40;99.90;;;;;;5009281;28;20196;-70
2023/11/22 09:20:07;;;;;;;8.80;7.87;;;10.60;99.90;;;;;;5011340;28;20164;-69
2023/11/22 09:22:32;;;;;;;9.00;8.10;;;10.80;99.90;;;;;;5011093;28;20199;-69
2023/11/22 09:24:58;;;;;;;8.80;7.90;;;11.00;99.90;;;;;;5010984;28;20227;-70
2023/11/22 09:27:25;;;;;;;8.20;7.37;;;11.10;99.90;;;;;;5011579;28;20212;-70
2023/11/22 09:29:50;;;;;;;7.87;7.17;;;11.40;99.90;;;;;;5010552;28;20168;-70
2023/11/22 09:32:16;;;;;;;8.77;7.77;;;11.40;99.90;;;;;;5011413;28;20195;-70
2023/11/22 09:34:44;;;;;;;8.27;7.47;;;11.60;99.90;;;;;;5010960;28;20245;-70
2023/11/22 09:37:09;;;;;;;8.63;7.13;;;11.70;99.90;;;;;;5011390;28;20673;-70
2023/11/22 09:39:36;;;;;;;9.90;7.83;;;12.10;99.90;;;;;;5011083;28;20176;-70
2023/11/22 09:42:02;;;;;;;9.90;7.47;;;12.30;93.60;;;;;;5011288;28;20234;-70
2023/11/22 09:44:28;;;;;;;7.47;6.70;;;12.60;99.90;;;;;;5011165;28;20263;-70
2023/11/22 09:46:56;;;;;;;8.23;6.23;;;12.80;59.50;;;;;;5011211;28;20660;-70
2023/11/22 09:49:25;;;;;;;6.30;5.70;;;12.80;1.00;;;;;;5011153;28;20179;-70
2023/11/22 09:51:54;;;;;;;7.87;6.07;;;12.80;1.00;;;;;;5011022;28;20187;-70
2023/11/22 09:54:24;;;;;;;7.50;6.03;;;12.90;1.00;;;;;;5011187;28;20211;-70
2023/11/22 09:56:51;;;;;;;5.70;5.10;;;13.00;1.00;;;;;;5015018;28;20176;-70
2023/11/22 09:59:23;;;;;;;5.40;4.90;;;12.70;1.00;;;;;;5014983;28;20302;-70
2023/11/22 10:01:48;;;;;;;5.90;5.30;;;12.30;1.00;;;;;;5014791;28;20183;-70
2023/11/22 10:04:15;;;;;;;6.57;5.80;;;12.30;1.00;;;;;;5015209;28;20255;-70
2023/11/22 10:06:46;;;;;;;6.87;6.20;;;12.20;1.00;;;;;;5014869;28;20752;-70
2023/11/22 10:09:13;;;;;;;6.50;5.83;;;12.20;1.00;;;;;;5014869;28;20176;-70
2023/11/22 10:11:43;;;;;;;6.70;6.00;;;12.00;1.00;;;;;;5014686;28;20180;-70
2023/11/22 10:14:21;;;;;;;6.50;5.90;;;12.10;1.00;;;;;;5014690;28;20208;-69
2023/11/22 10:16:58;;;;;;;6.70;6.10;;;12.10;1.00;;;;;;5015305;28;20187;-69
2023/11/22 10:19:25;;;;;;;7.77;5.97;;;12.00;1.00;;;;;;5014587;28;20239;-69
2023/11/22 10:22:04;;;;;;;6.63;5.93;;;11.80;1.00;;;;;;4996753;28;20173;-69
2023/11/22 10:24:34;;;;;;;6.77;5.50;;;11.60;1.00;;;;;;5014539;28;20270;-69
2023/11/22 10:27:01;;;;;;;8.17;6.37;;;11.40;1.00;;;;;;5014655;28;20199;-70
2023/11/22 10:29:26;;;;;;;6.20;5.63;;;11.20;1.00;;;;;;5014312;28;20184;-70
2023/11/22 10:31:53;;;;;;;6.43;5.73;;;11.20;1.00;;;;;;5013930;28;20751;-70
2023/11/22 10:34:22;;;;;;;7.57;6.40;;;11.20;1.00;;;;;;5014425;28;20242;-70
2023/11/22 10:36:49;;;;;;;8.60;6.97;;;11.20;1.00;;;;;;5014240;28;20195;-70
2023/11/22 10:39:19;;;;;;;7.47;6.57;;;11.00;1.00;;;;;;5014582;28;20207;-70
2023/11/22 10:41:46;;;;;;;6.47;5.80;;;10.90;1.00;;;;;;5014246;28;20164;-70
2023/11/22 10:44:11;;;;;;;6.77;6.07;;;10.60;1.00;;;;;;5014282;28;20696;-70
2023/11/22 10:46:39;;;;;;;6.93;5.43;;;10.50;1.00;;;;;;5014205;28;20283;-70
2023/11/22 10:49:05;;;;;;;8.03;5.93;;;10.20;1.00;;;;;;5014155;28;20301;-70
2023/11/22 10:51:32;;;;;;;6.40;5.80;;;10.00;1.00;;;;;;5014240;28;20370;-69
2023/11/22 10:54:00;;;;;;;6.07;5.53;;;10.00;1.00;;;;;;5014126;28;20235;-70
2023/11/22 10:56:28;;;;;;;6.83;5.20;;;10.10;1.00;;;;;;5014490;28;20180;-70
2023/11/22 10:58:57;;;;;;;7.10;6.37;;;10.20;1.00;;;;;;5014242;28;20199;-70
2023/11/22 11:01:29;;;;;;;7.10;6.10;;;10.30;1.00;;;;;;5014122;28;20172;-70
2023/11/22 11:04:10;;;;;;;6.43;5.60;;;10.20;1.00;;;;;;5013952;28;20248;-70
2023/11/22 11:06:36;;;;;;;10.40;7.03;;;10.00;1.00;;;;;;5013358;28;20183;-70
2023/11/22 11:09:10;;;;;;;6.93;6.17;;;9.90;1.00;;;;;;5013635;28;20218;-70
2023/11/22 11:11:37;;;;;;;6.20;5.60;;;9.80;1.00;;;;;;5013822;28;20218;-70
2023/11/22 11:14:05;;;;;;;6.13;5.53;;;9.90;1.00;;;;;;5028834;28;20220;-70
2023/11/22 11:16:34;;;;;;;10.87;7.60;;;10.10;1.00;;;;;;5013829;28;20266;-70
2023/11/22 11:19:01;;;;;;;11.30;7.77;;;10.40;1.00;;;;;;5013397;28;20203;-70
2023/11/22 11:21:26;;;;;;;9.17;7.83;;;10.50;1.00;;;;;;5013616;28;20169;-70
2023/11/22 11:23:54;;;;;;;8.33;6.87;;;10.70;1.00;;;;;;5013297;28;20570;-70
2023/11/22 11:26:23;;;;;;;6.70;6.00;;;10.90;1.00;;;;;;5013863;28;20263;-70
2023/11/22 11:28:51;;;;;;;6.57;5.97;;;11.20;1.00;;;;;;5013302;28;20200;-70
2023/11/22 11:31:20;;;;;;;6.97;5.50;;;11.20;1.00;;;;;;5013279;28;20187;-70
2023/11/22 11:33:53;;;;;;;6.60;5.87;;;11.10;1.00;;;;;;5013441;28;20214;-70
2023/11/22 11:36:29;;;;;;;6.20;5.60;;;11.20;1.00;;;;;;4995866;28;20172;-69
2023/11/22 11:38:56;;;;;;;7.67;5.33;;;11.10;1.00;;;;;;5013194;28;20287;-70
2023/11/22 11:41:31;;;;;;;6.73;6.03;;;10.90;1.00;;;;;;5013628;28;20172;-69
2023/11/22 11:43:59;;;;;;;6.37;5.57;;;10.80;1.00;;;;;;5013057;28;20203;-69
2023/11/22 11:46:27;;;;;;;6.20;5.60;;;10.80;1.00;;;;;;5013108;28;20176;-69
2023/11/22 11:48:53;;;;;;;6.27;5.67;;;10.60;1.00;;;;;;5012880;28;20286;-70
2023/11/22 11:51:22;;;;;;;6.63;6.03;;;10.60;1.00;;;;;;5013195;28;20238;-70
2023/11/22 11:53:48;;;;;;;5.90;5.40;;;10.50;1.00;;;;;;5012870;28;20294;-70
2023/11/22 11:56:14;;;;;;;6.73;5.40;;;10.60;1.00;;;;;;5013046;28;20622;-70
2023/11/22 11:58:44;;;;;;;5.87;4.60;;;10.70;1.00;;;;;;5012903;28;20210;-70
2023/11/22 12:01:20;;;;;;;5.07;4.50;;;10.70;1.00;;;;;;5013042;28;20176;-70
2023/11/22 12:03:46;;;;;;;5.80;5.30;;;10.80;1.00;;;;;;5012687;28;20186;-70
2023/11/22 12:06:16;;;;;;;7.03;5.90;;;10.90;1.00;;;;;;5012699;28;20187;-70
2023/11/22 12:08:42;;;;;;;7.60;5.83;;;10.80;1.00;;;;;;5012272;28;20287;-70
2023/11/22 12:11:08;;;;;;;6.10;5.50;;;10.60;99.90;;;;;;5012121;28;20175;-70
2023/11/22 12:13:38;;;;;;;5.83;5.33;;;10.50;1.00;;;;;;5012481;28;20192;-70
2023/11/22 12:16:14;;;;;;;5.47;4.97;;;10.50;1.00;;;;;;5012501;28;20276;-70
2023/11/22 12:18:50;;;;;;;5.90;5.40;;;10.50;99.90;;;;;;4998561;28;20570;-69
2023/11/22 12:21:17;;;;;;;6.73;6.03;;;10.50;99.90;;;;;;4991485;28;20195;-70
2023/11/22 12:23:45;;;;;;;6.53;5.63;;;10.30;99.90;;;;;;4991527;28;20193;-70
2023/11/22 12:26:16;;;;;;;8.67;5.90;;;10.10;99.90;;;;;;4992959;28;20651;-70
2023/11/22 12:28:44;;;;;;;6.97;5.80;;;10.00;99.90;;;;;;4992416;28;20212;-70
2023/11/22 12:31:12;;;;;;;6.13;5.50;;;9.90;99.90;;;;;;4992946;28;20272;-70
2023/11/22 12:33:40;;;;;;;7.33;5.53;;;9.90;99.90;;;;;;4992617;28;20259;-70
2023/11/22 12:36:09;;;;;;;5.50;5.10;;;9.80;99.90;;;;;;4992584;28;20219;-69
2023/11/22 12:38:35;;;;;;;6.67;5.83;;;9.60;99.90;;;;;;4992264;28;20203;-69